Time;durP1;ratioP1;P1;durP2;ratioP2;P2;SDS_P1;SDS_P2;PMS_P1;PMS_P2;Temp;Humidity;BMP_temperature;BMP_pressure;BME280_temperature;BME280_humidity;BME280_pressure;Samples;Min_cycle;Max_cycle;Signal;HPM_P1;HPM_P2
2021/09/08 00:01:20;;;;;;;8.53;6.20;;;;;;;10.37;76.82;98630.05;1684851;85;20993;-74
2021/09/08 00:03:46;;;;;;;10.40;6.28;;;;;;;10.35;76.67;98634.95;1685003;85;21048;-74
2021/09/08 00:06:13;;;;;;;11.25;6.37;;;;;;;10.32;77.24;98637.64;1703943;84;20993;-74
2021/09/08 00:08:40;;;;;;;10.05;5.90;;;;;;;10.29;77.17;98632.84;1684263;84;21009;-74
2021/09/08 00:11:06;;;;;;;12.07;6.60;;;;;;;10.26;78.47;98632.88;1681519;85;21051;-75
2021/09/08 00:13:32;;;;;;;11.25;6.40;;;;;;;10.22;77.40;98631.66;1680055;85;21017;-75
2021/09/08 00:15:59;;;;;;;9.33;5.70;;;;;;;10.20;77.94;98633.44;1680052;84;21072;-75
2021/09/08 00:18:26;;;;;;;10.00;6.33;;;;;;;10.16;79.16;98636.16;1681505;85;21056;-75
2021/09/08 00:20:52;;;;;;;10.23;5.72;;;;;;;10.19;78.70;98635.23;1668718;85;21009;-75
2021/09/08 00:23:19;;;;;;;9.45;5.55;;;;;;;10.20;78.10;98642.27;1675784;85;20993;-75
2021/09/08 00:25:45;;;;;;;8.93;5.40;;;;;;;10.20;78.73;98633.00;1676174;84;21439;-76
2021/09/08 00:28:12;;;;;;;12.00;5.50;;;;;;;10.21;78.82;98633.42;1666878;85;21072;-76
2021/09/08 00:30:38;;;;;;;11.68;5.75;;;;;;;10.20;78.71;98640.06;1677732;84;21448;-76
2021/09/08 00:33:05;;;;;;;8.65;5.40;;;;;;;10.21;78.39;98632.56;1708877;84;21062;-75
2021/09/08 00:35:31;;;;;;;9.45;5.47;;;;;;;10.23;78.66;98633.39;1681290;83;21037;-75
2021/09/08 00:38:00;;;;;;;11.73;5.50;;;;;;;10.27;78.08;98637.74;1670506;85;21428;-76
2021/09/08 00:40:28;;;;;;;8.58;5.42;;;;;;;10.30;78.00;98627.95;1680035;85;21081;-75
2021/09/08 00:42:55;;;;;;;9.28;4.83;;;;;;;10.34;77.72;98631.41;1679974;85;20998;-75
2021/09/08 00:45:22;;;;;;;8.43;5.33;;;;;;;10.36;77.98;98635.36;1680034;85;20955;-75
2021/09/08 00:47:48;;;;;;;8.78;5.65;;;;;;;10.38;77.98;98635.76;1669378;85;21049;-75
2021/09/08 00:50:16;;;;;;;9.58;5.65;;;;;;;10.36;77.58;98639.34;1679951;85;20966;-75
2021/09/08 00:52:47;;;;;;;9.03;5.35;;;;;;;10.34;78.10;98636.71;1680010;85;21042;-75
2021/09/08 00:55:15;;;;;;;10.53;5.75;;;;;;;10.35;77.05;98636.27;1683735;84;21061;-75
2021/09/08 00:57:45;;;;;;;10.15;5.87;;;;;;;10.30;76.89;98635.05;1681111;85;21037;-75
2021/09/08 01:00:14;;;;;;;10.65;6.30;;;;;;;10.25;76.84;98631.58;1679959;85;20998;-75
2021/09/08 01:02:40;;;;;;;10.28;5.90;;;;;;;10.21;76.78;98630.77;1681034;85;21500;-75
2021/09/08 01:05:09;;;;;;;15.78;6.05;;;;;;;10.16;76.86;98627.33;1681456;85;20973;-75
2021/09/08 01:07:37;;;;;;;8.95;5.37;;;;;;;10.11;77.04;98634.48;1681421;84;21463;-75
2021/09/08 01:10:05;;;;;;;9.75;5.95;;;;;;;10.07;76.41;98638.08;1679835;85;20993;-75
2021/09/08 01:12:31;;;;;;;10.55;5.92;;;;;;;10.00;76.40;98631.57;1679207;85;21317;-75
2021/09/08 01:14:59;;;;;;;7.87;5.15;;;;;;;9.94;77.37;98631.69;1679457;85;21096;-75
2021/09/08 01:17:25;;;;;;;10.05;6.00;;;;;;;9.88;77.48;98630.00;1679684;85;21005;-75
2021/09/08 01:19:51;;;;;;;8.80;5.30;;;;;;;9.84;76.97;98626.97;1678965;85;20994;-75
2021/09/08 01:22:18;;;;;;;10.15;5.47;;;;;;;9.77;77.81;98624.02;1696372;84;21435;-75
2021/09/08 01:24:44;;;;;;;9.88;5.37;;;;;;;9.74;77.34;98622.30;1678735;85;20996;-75
2021/09/08 01:27:11;;;;;;;9.60;6.05;;;;;;;9.71;77.27;98618.36;1679487;85;20949;-75
2021/09/08 01:29:38;;;;;;;8.30;5.28;;;;;;;9.70;77.45;98627.64;1678786;84;21534;-75
2021/09/08 01:32:05;;;;;;;9.65;5.60;;;;;;;9.67;77.98;98629.03;1680597;84;20994;-75
2021/09/08 01:34:31;;;;;;;9.15;5.60;;;;;;;9.64;77.41;98626.84;1649577;86;21034;-75
2021/09/08 01:36:58;;;;;;;10.48;5.65;;;;;;;9.62;77.36;98622.47;1663629;86;21006;-74
2021/09/08 01:39:24;;;;;;;8.75;5.20;;;;;;;9.59;78.06;98620.75;1656573;87;21058;-74
2021/09/08 01:41:51;;;;;;;9.38;5.67;;;;;;;9.59;77.43;98618.11;1658087;86;21046;-74
2021/09/08 01:44:23;;;;;;;9.60;5.58;;;;;;;9.56;78.08;98618.17;1658052;86;21086;-74
2021/09/08 01:46:56;;;;;;;10.18;5.58;;;;;;;9.54;77.90;98615.13;1669992;86;21010;-74
2021/09/08 01:49:25;;;;;;;9.33;5.62;;;;;;;9.51;77.83;98620.87;1658343;85;21026;-74
2021/09/08 01:51:51;;;;;;;11.12;5.65;;;;;;;9.45;78.16;98613.47;1678045;85;21455;-74
2021/09/08 01:54:20;;;;;;;10.18;5.37;;;;;;;9.38;78.04;98623.27;1677670;84;21015;-74
2021/09/08 01:56:46;;;;;;;9.23;5.72;;;;;;;9.34;77.83;98622.91;1677993;85;21428;-74
2021/09/08 01:59:13;;;;;;;8.45;5.78;;;;;;;9.28;77.85;98622.54;1677925;85;20990;-74
2021/09/08 02:01:39;;;;;;;8.98;5.42;;;;;;;9.23;78.41;98622.59;1678467;85;21009;-75
2021/09/08 02:04:06;;;;;;;12.47;5.62;;;;;;;9.22;78.82;98622.16;1679435;85;21024;-75
2021/09/08 02:06:32;;;;;;;10.28;5.55;;;;;;;9.22;78.77;98626.13;1679568;85;20988;-74
2021/09/08 02:09:01;;;;;;;7.62;4.92;;;;;;;9.22;78.60;98624.81;1679784;84;20992;-75
2021/09/08 02:11:28;;;;;;;8.15;5.58;;;;;;;9.21;78.21;98620.86;1687001;84;21061;-75
2021/09/08 02:13:56;;;;;;;9.93;6.00;;;;;;;9.15;79.91;98626.23;1699528;84;21076;-74
2021/09/08 02:16:22;;;;;;;8.63;5.50;;;;;;;9.14;78.37;98623.17;1680045;85;21025;-74
2021/09/08 02:18:50;;;;;;;12.73;5.70;;;;;;;9.11;78.90;98622.30;1680071;85;21003;-74
2021/09/08 02:21:18;;;;;;;10.00;5.70;;;;;;;9.09;80.03;98617.50;1680030;85;21030;-75
2021/09/08 02:23:47;;;;;;;10.60;5.92;;;;;;;9.07;79.68;98625.91;1680859;85;21025;-74
2021/09/08 02:26:14;;;;;;;8.33;5.42;;;;;;;9.07;79.84;98624.59;1681445;85;21102;-75
2021/09/08 02:28:40;;;;;;;7.85;5.12;;;;;;;9.06;79.05;98622.81;1681263;85;21112;-76
2021/09/08 02:31:10;;;;;;;7.78;5.22;;;;;;;9.07;79.47;98622.38;1680803;84;21012;-76
2021/09/08 02:33:38;;;;;;;9.58;4.95;;;;;;;9.07;78.89;98617.09;1675304;85;21021;-74
2021/09/08 02:36:05;;;;;;;8.48;4.78;;;;;;;9.05;79.08;98621.07;1681528;84;21420;-75
2021/09/08 02:38:33;;;;;;;9.40;5.37;;;;;;;9.08;78.99;98621.48;1679990;85;21003;-75
2021/09/08 02:41:08;;;;;;;6.92;5.08;;;;;;;9.10;79.22;98621.03;1680118;85;20990;-75
2021/09/08 02:43:36;;;;;;;10.28;5.30;;;;;;;9.11;80.56;98619.66;1679925;85;21032;-75
2021/09/08 02:46:04;;;;;;;9.08;4.90;;;;;;;9.14;79.83;98618.77;1680114;85;21030;-75
2021/09/08 02:48:32;;;;;;;7.00;4.67;;;;;;;9.18;79.57;98620.45;1680086;85;21085;-75
2021/09/08 02:51:00;;;;;;;8.98;5.10;;;;;;;9.22;79.31;98621.31;1679054;85;21006;-75
2021/09/08 02:53:26;;;;;;;8.58;5.10;;;;;;;9.21;80.01;98623.06;1675459;84;21010;-75
2021/09/08 02:55:54;;;;;;;10.05;4.97;;;;;;;9.23;80.21;98615.12;1689250;84;21017;-75
2021/09/08 02:58:20;;;;;;;9.18;4.78;;;;;;;9.24;80.12;98622.16;1709907;83;21017;-75
2021/09/08 03:00:47;;;;;;;7.47;4.72;;;;;;;9.24;80.65;98620.83;1701284;84;20990;-75
2021/09/08 03:03:13;;;;;;;8.58;4.75;;;;;;;9.27;80.24;98628.73;1705527;84;20978;-75
2021/09/08 03:05:40;;;;;;;9.30;4.75;;;;;;;9.28;80.45;98619.89;1710012;83;21093;-75
2021/09/08 03:08:06;;;;;;;10.43;4.72;;;;;;;9.27;80.57;98634.02;1709996;84;20966;-75
2021/09/08 03:10:34;;;;;;;10.50;5.30;;;;;;;9.28;80.00;98626.51;1708268;83;21447;-75
2021/09/08 03:13:01;;;;;;;9.80;5.22;;;;;;;9.29;79.72;98628.69;1707617;84;21033;-75
2021/09/08 03:15:27;;;;;;;6.85;4.67;;;;;;;9.22;80.32;98630.10;1707805;83;21064;-75
2021/09/08 03:17:54;;;;;;;11.25;5.45;;;;;;;9.21;79.78;98634.08;1707876;84;20990;-75
2021/09/08 03:20:21;;;;;;;9.63;5.40;;;;;;;9.17;80.80;98634.58;1707820;83;21093;-75
2021/09/08 03:22:47;;;;;;;7.62;6.03;;;;;;;9.15;79.59;98640.35;1694926;84;21120;-75
2021/09/08 03:25:14;;;;;;;7.72;5.25;;;;;;;9.15;79.38;98635.50;1680072;84;21073;-75
2021/09/08 03:27:41;;;;;;;11.08;5.03;;;;;;;9.10;79.45;98636.89;1678077;85;21006;-75
2021/09/08 03:30:09;;;;;;;11.50;5.50;;;;;;;9.09;78.92;98638.66;1678086;85;21021;-74
2021/09/08 03:32:35;;;;;;;9.58;5.47;;;;;;;9.02;79.42;98634.78;1652084;87;21085;-75
2021/09/08 03:35:02;;;;;;;8.23;5.35;;;;;;;9.00;79.52;98636.13;1668118;84;21061;-75
2021/09/08 03:37:29;;;;;;;6.35;4.70;;;;;;;8.95;80.33;98640.16;1664942;86;21037;-75
2021/09/08 03:39:56;;;;;;;10.90;5.25;;;;;;;8.89;80.50;98641.53;1664874;86;21037;-75
2021/09/08 03:42:24;;;;;;;8.60;5.50;;;;;;;8.83;79.90;98641.19;1665035;86;21001;-74
2021/09/08 03:44:51;;;;;;;9.03;5.28;;;;;;;8.79;79.57;98645.19;1665026;86;21030;-75
2021/09/08 03:47:18;;;;;;;8.03;5.53;;;;;;;8.76;79.63;98642.14;1664898;85;21014;-75
2021/09/08 03:49:46;;;;;;;11.60;5.10;;;;;;;8.74;80.23;98651.86;1671234;84;21007;-75
2021/09/08 03:52:14;;;;;;;12.37;5.72;;;;;;;8.69;79.78;98651.05;1702071;84;21016;-75
2021/09/08 03:54:40;;;;;;;8.05;5.30;;;;;;;8.65;79.91;98658.14;1678725;85;21061;-75
2021/09/08 03:57:07;;;;;;;9.50;5.20;;;;;;;8.61;80.95;98652.45;1679487;85;20958;-75
2021/09/08 03:59:35;;;;;;;10.88;5.42;;;;;;;8.57;81.77;98656.91;1688622;84;21085;-75
2021/09/08 04:02:02;;;;;;;11.73;6.00;;;;;;;8.58;81.68;98657.76;1707798;84;20986;-74
2021/09/08 04:04:30;;;;;;;8.85;5.42;;;;;;;8.60;80.55;98659.07;1707849;84;21049;-75
2021/09/08 04:06:57;;;;;;;10.32;5.92;;;;;;;8.62;80.72;98655.52;1707992;84;21427;-75
2021/09/08 04:09:24;;;;;;;9.30;5.55;;;;;;;8.63;80.12;98661.22;1707932;84;21021;-75
2021/09/08 04:11:50;;;;;;;13.08;6.20;;;;;;;8.62;79.83;98662.55;1697318;84;21082;-75
2021/09/08 04:14:17;;;;;;;8.55;5.45;;;;;;;8.61;79.87;98665.66;1695242;85;21067;-74
2021/09/08 04:16:43;;;;;;;11.63;5.92;;;;;;;8.60;80.35;98660.39;1703019;84;21005;-74
2021/09/08 04:19:10;;;;;;;8.68;5.55;;;;;;;8.58;80.41;98661.72;1701354;84;21049;-74
2021/09/08 04:21:36;;;;;;;10.43;5.87;;;;;;;8.55;80.03;98667.91;1679749;85;21447;-74
2021/09/08 04:24:03;;;;;;;10.93;5.97;;;;;;;8.52;79.97;98665.73;1697504;84;21033;-75
2021/09/08 04:26:30;;;;;;;10.45;6.50;;;;;;;8.51;80.12;98671.91;1686256;84;21069;-75
2021/09/08 04:28:57;;;;;;;9.15;5.72;;;;;;;8.52;80.12;98672.33;1681388;85;21037;-75
2021/09/08 04:31:24;;;;;;;10.75;5.45;;;;;;;8.53;80.20;98672.35;1681449;85;21025;-75
2021/09/08 04:33:50;;;;;;;10.08;5.65;;;;;;;8.55;80.26;98669.67;1680271;85;21069;-75
2021/09/08 04:36:16;;;;;;;11.83;5.80;;;;;;;8.56;81.17;98679.38;1679892;85;21014;-75
2021/09/08 04:38:45;;;;;;;12.88;6.42;;;;;;;8.55;81.34;98679.80;1680020;85;21018;-75
2021/09/08 04:41:13;;;;;;;14.10;6.50;;;;;;;8.57;80.56;98675.40;1679795;85;20998;-76
2021/09/08 04:43:41;;;;;;;12.10;5.97;;;;;;;8.59;80.89;98676.67;1684204;84;21009;-76
2021/09/08 04:46:08;;;;;;;10.05;5.90;;;;;;;8.59;80.42;98676.67;1683015;83;20989;-75
2021/09/08 04:48:34;;;;;;;10.30;5.70;;;;;;;8.62;80.72;98675.33;1680979;85;21017;-75
2021/09/08 04:51:01;;;;;;;9.83;5.40;;;;;;;8.68;81.03;98677.05;1681532;85;21033;-75
2021/09/08 04:53:28;;;;;;;10.65;6.03;;;;;;;8.74;80.16;98682.69;1681183;85;21010;-75
2021/09/08 04:55:54;;;;;;;11.85;6.40;;;;;;;8.79;80.77;98676.91;1681351;85;21041;-75
2021/09/08 04:58:20;;;;;;;13.48;6.10;;;;;;;8.85;80.53;98672.42;1681485;85;21053;-75
2021/09/08 05:00:47;;;;;;;11.95;6.05;;;;;;;8.94;80.49;98670.58;1681342;85;21480;-74
2021/09/08 05:03:13;;;;;;;10.50;6.12;;;;;;;9.02;80.81;98666.08;1681444;84;20991;-74
2021/09/08 05:05:40;;;;;;;11.38;6.05;;;;;;;9.08;81.05;98672.61;1680249;84;21073;-73
2021/09/08 05:08:06;;;;;;;7.92;5.83;;;;;;;9.19;80.89;98674.23;1680077;85;20966;-74
2021/09/08 05:10:33;;;;;;;11.40;5.42;;;;;;;9.28;80.88;98672.80;1680088;84;20995;-74
2021/09/08 05:12:59;;;;;;;7.58;5.45;;;;;;;9.36;80.81;98666.08;1680589;84;21035;-73
2021/09/08 05:15:26;;;;;;;9.55;5.47;;;;;;;9.43;80.87;98668.19;1680300;85;21013;-73
2021/09/08 05:17:52;;;;;;;9.05;5.70;;;;;;;9.52;80.83;98670.70;1652464;87;21024;-74
2021/09/08 05:20:19;;;;;;;13.53;5.60;;;;;;;9.61;80.82;98672.34;1652747;87;21457;-73
2021/09/08 05:22:46;;;;;;;11.90;5.85;;;;;;;9.67;80.67;98669.59;1670974;85;20988;-74
2021/09/08 05:25:12;;;;;;;8.45;5.70;;;;;;;9.74;80.45;98671.70;1681173;85;20959;-74
2021/09/08 05:27:39;;;;;;;11.38;6.20;;;;;;;9.81;80.40;98676.02;1681364;85;21035;-74
2021/09/08 05:30:07;;;;;;;11.55;6.10;;;;;;;9.86;80.08;98667.55;1685526;84;21015;-74
2021/09/08 05:32:33;;;;;;;13.65;6.65;;;;;;;9.92;79.95;98676.30;1683028;84;21011;-74
2021/09/08 05:35:00;;;;;;;13.88;6.35;;;;;;;9.97;79.61;98678.42;1678831;85;21009;-74
2021/09/08 05:37:26;;;;;;;14.05;6.60;;;;;;;9.98;79.35;98674.43;1648536;86;21002;-74
2021/09/08 05:39:53;;;;;;;10.72;6.20;;;;;;;10.00;79.16;98674.37;1648532;87;20990;-74
2021/09/08 05:42:19;;;;;;;11.40;7.40;;;;;;;10.03;79.00;98680.52;1666399;85;21061;-74
2021/09/08 05:44:45;;;;;;;13.72;6.50;;;;;;;10.03;79.62;98680.96;1677611;85;21034;-74
2021/09/08 05:47:13;;;;;;;9.33;6.05;;;;;;;10.03;78.67;98676.55;1681405;85;21457;-74
2021/09/08 05:49:39;;;;;;;9.60;5.95;;;;;;;10.04;78.86;98678.30;1681644;85;21390;-74
2021/09/08 05:52:06;;;;;;;9.43;6.05;;;;;;;10.09;78.74;98681.32;1681415;84;21024;-74
2021/09/08 05:54:32;;;;;;;14.40;6.28;;;;;;;10.12;78.71;98680.81;1687485;84;21018;-74
2021/09/08 05:56:59;;;;;;;12.75;6.72;;;;;;;10.17;78.51;98683.37;1702807;84;20982;-74
2021/09/08 05:59:26;;;;;;;11.08;6.40;;;;;;;10.22;78.57;98683.31;1708644;84;21144;-74
2021/09/08 06:01:52;;;;;;;14.20;7.05;;;;;;;10.26;78.63;98676.59;1701984;84;21389;-74
2021/09/08 06:04:18;;;;;;;11.48;6.37;;;;;;;10.31;78.47;98681.83;1681696;84;21008;-74
2021/09/08 06:06:45;;;;;;;11.70;6.25;;;;;;;10.37;78.66;98678.17;1681372;85;21009;-75
2021/09/08 06:09:11;;;;;;;13.50;6.70;;;;;;;10.42;78.30;98671.02;1681717;85;21025;-74
2021/09/08 06:11:38;;;;;;;9.38;6.40;;;;;;;10.49;78.02;98675.35;1679846;85;21011;-74
2021/09/08 06:14:07;;;;;;;10.78;6.85;;;;;;;10.56;77.83;98674.80;1676944;85;21015;-77
2021/09/08 06:16:33;;;;;;;11.95;6.60;;;;;;;10.64;77.93;98675.97;1674672;84;21015;-77
2021/09/08 06:19:00;;;;;;;11.83;6.62;;;;;;;10.71;77.90;98672.76;1678011;84;21097;-76
2021/09/08 06:21:26;;;;;;;12.00;6.70;;;;;;;10.78;77.94;98668.63;1662547;85;21039;-76
2021/09/08 06:23:53;;;;;;;9.23;6.30;;;;;;;10.87;77.79;98667.56;1677808;84;21024;-76
2021/09/08 06:26:19;;;;;;;11.75;6.37;;;;;;;10.94;77.52;98661.25;1673786;84;21570;-75
2021/09/08 06:28:48;;;;;;;8.13;5.95;;;;;;;11.02;77.01;98662.86;1673440;85;21094;-76
2021/09/08 06:31:15;;;;;;;10.13;5.65;;;;;;;11.09;77.08;98665.34;1675236;85;21044;-76
2021/09/08 06:33:41;;;;;;;11.03;6.20;;;;;;;11.18;77.08;98658.96;1679636;85;21525;-76
2021/09/08 06:36:08;;;;;;;10.38;7.00;;;;;;;11.27;76.84;98663.22;1676109;85;21017;-76
2021/09/08 06:38:34;;;;;;;16.75;7.25;;;;;;;11.37;76.54;98660.37;1672128;85;20988;-77
2021/09/08 06:41:01;;;;;;;14.95;7.25;;;;;;;11.47;76.34;98661.44;1646412;87;20997;-76
2021/09/08 06:43:28;;;;;;;9.93;6.50;;;;;;;11.58;75.99;98659.87;1648335;85;21034;-75
2021/09/08 06:45:56;;;;;;;13.48;7.67;;;;;;;11.67;75.80;98661.44;1679215;85;21087;-76
2021/09/08 06:48:27;;;;;;;10.65;6.67;;;;;;;11.74;75.64;98663.49;1679093;85;21011;-76
2021/09/08 06:50:53;;;;;;;12.98;7.58;;;;;;;11.83;75.51;98659.30;1682728;84;20990;-76
2021/09/08 06:53:20;;;;;;;15.72;8.13;;;;;;;11.93;75.53;98670.58;1678948;85;21036;-76
2021/09/08 06:55:46;;;;;;;22.50;10.20;;;;;;;12.04;75.41;98666.31;1678037;85;21095;-75
2021/09/08 06:58:13;;;;;;;18.75;10.38;;;;;;;12.14;75.32;98665.20;1677755;85;21578;-77
2021/09/08 07:00:39;;;;;;;19.67;10.13;;;;;;;12.27;74.94;98666.23;1656658;85;21343;-75
2021/09/08 07:03:07;;;;;;;18.85;9.95;;;;;;;12.37;74.46;98669.55;1689496;84;20998;-79
2021/09/08 07:05:35;;;;;;;26.35;11.10;;;;;;;12.46;74.50;98667.09;1668935;84;21001;-78
2021/09/08 07:08:11;;;;;;;19.45;10.10;;;;;;;12.57;74.22;98664.16;1672901;85;21055;-78
2021/09/08 07:10:39;;;;;;;40.35;24.85;;;;;;;12.66;74.15;98670.08;1657926;85;21031;-75
2021/09/08 07:13:05;;;;;;;47.55;29.50;;;;;;;12.76;73.99;98670.71;1662256;85;21107;-77
2021/09/08 07:15:32;;;;;;;25.32;13.95;;;;;;;12.87;73.91;98672.20;1661779;85;20982;-80
2021/09/08 07:17:58;;;;;;;24.05;12.18;;;;;;;12.98;73.46;98672.76;1655600;85;21049;-77
2021/09/08 07:20:28;;;;;;;20.23;12.43;;;;;;;13.05;72.06;98665.00;1652751;85;20990;-77
2021/09/08 07:22:54;;;;;;;18.25;11.33;;;;;;;13.18;72.79;98667.31;1678989;85;21475;-78
2021/09/08 07:25:21;;;;;;;19.55;11.43;;;;;;;13.30;71.94;98673.63;1679181;85;21005;-77
2021/09/08 07:27:48;;;;;;;20.27;10.13;;;;;;;13.41;71.52;98667.95;1690603;84;21045;-77
2021/09/08 07:30:14;;;;;;;17.75;8.40;;;;;;;13.54;70.96;98667.14;1707399;83;21353;-77
2021/09/08 07:32:41;;;;;;;17.07;8.00;;;;;;;13.65;70.66;98667.27;1707341;84;21022;-77
2021/09/08 07:35:09;;;;;;;14.00;7.58;;;;;;;13.75;70.44;98671.86;1707116;84;21036;-77
2021/09/08 07:37:37;;;;;;;14.43;7.62;;;;;;;13.84;70.09;98673.75;1706478;84;21057;-76
2021/09/08 07:40:07;;;;;;;18.98;7.60;;;;;;;13.94;69.43;98665.02;1686478;84;20990;-79
2021/09/08 07:42:36;;;;;;;14.45;7.62;;;;;;;14.02;69.76;98675.42;1692146;84;21049;-75
2021/09/08 07:45:06;;;;;;;12.78;7.55;;;;;;;14.11;68.92;98680.45;1690446;84;21069;-76
2021/09/08 07:47:33;;;;;;;14.28;8.28;;;;;;;14.21;67.97;98677.00;1649611;86;21563;-75
2021/09/08 07:49:59;;;;;;;20.43;13.10;;;;;;;14.30;68.80;98674.52;1676887;84;21021;-76
2021/09/08 07:52:26;;;;;;;58.13;35.88;;;;;;;14.38;68.54;98668.44;1671542;85;20985;-77
2021/09/08 07:54:52;;;;;;;28.55;11.68;;;;;;;14.46;67.97;98668.65;1674037;85;21085;-77
2021/09/08 07:57:19;;;;;;;16.35;8.68;;;;;;;14.54;67.80;98670.59;1658874;85;20988;-75
2021/09/08 07:59:45;;;;;;;14.80;7.62;;;;;;;14.64;67.88;98664.46;1649756;85;21007;-75
2021/09/08 08:02:12;;;;;;;19.50;9.85;;;;;;;14.74;66.64;98661.02;1650530;87;21048;-75
2021/09/08 08:04:39;;;;;;;16.05;8.83;;;;;;;14.86;66.99;98663.25;1650401;87;21051;-75
2021/09/08 08:07:05;;;;;;;16.90;8.43;;;;;;;14.96;67.32;98670.48;1662202;85;21015;-75
2021/09/08 08:09:32;;;;;;;19.20;8.58;;;;;;;15.03;66.71;98660.45;1679312;85;21062;-75
2021/09/08 08:11:58;;;;;;;16.25;7.87;;;;;;;15.14;67.22;98662.70;1680530;85;21087;-76
2021/09/08 08:14:25;;;;;;;13.70;8.18;;;;;;;15.22;66.86;98659.28;1681380;85;21418;-76
2021/09/08 08:16:52;;;;;;;14.05;7.78;;;;;;;15.31;66.28;98662.05;1681158;85;21047;-75
2021/09/08 08:19:19;;;;;;;19.52;7.80;;;;;;;15.40;66.37;98656.84;1681225;85;21429;-76
2021/09/08 08:21:46;;;;;;;12.53;7.10;;;;;;;15.49;66.39;98658.28;1681199;85;20997;-76
2021/09/08 08:24:12;;;;;;;11.43;7.03;;;;;;;15.56;66.00;98659.31;1681341;85;21443;-75
2021/09/08 08:26:39;;;;;;;14.13;7.37;;;;;;;15.65;65.89;98657.22;1681369;85;21084;-75
2021/09/08 08:29:05;;;;;;;12.05;7.08;;;;;;;15.73;65.14;98658.25;1681335;85;21068;-75
2021/09/08 08:31:32;;;;;;;18.70;7.42;;;;;;;15.86;65.34;98663.48;1681277;85;21010;-76
2021/09/08 08:33:58;;;;;;;12.20;6.80;;;;;;;15.95;65.07;98659.61;1681452;85;21021;-75
2021/09/08 08:36:25;;;;;;;16.02;7.12;;;;;;;16.01;64.25;98659.35;1681233;85;21033;-76
2021/09/08 08:38:53;;;;;;;13.15;6.65;;;;;;;16.07;64.30;98654.23;1680899;85;21121;-75
2021/09/08 08:41:21;;;;;;;14.10;6.65;;;;;;;16.15;63.11;98653.91;1681256;85;21053;-75
2021/09/08 08:43:48;;;;;;;14.38;5.80;;;;;;;16.23;63.49;98652.64;1681125;85;21070;-76
2021/09/08 08:46:16;;;;;;;10.35;6.62;;;;;;;16.34;63.65;98653.53;1681272;85;21050;-74
2021/09/08 08:48:43;;;;;;;11.60;6.40;;;;;;;16.43;63.50;98647.36;1681246;85;20995;-75
2021/09/08 08:51:10;;;;;;;9.33;6.08;;;;;;;16.54;62.54;98645.11;1681177;85;21005;-74
2021/09/08 08:53:36;;;;;;;13.08;7.05;;;;;;;16.66;62.55;98648.17;1681280;85;21511;-73
2021/09/08 08:56:02;;;;;;;14.75;6.62;;;;;;;16.80;62.12;98643.08;1681111;85;21005;-75
2021/09/08 08:58:29;;;;;;;13.05;7.25;;;;;;;16.89;61.69;98639.11;1681433;85;21455;-75
2021/09/08 09:01:25;;;;;;;10.20;6.12;;;;;;;16.97;62.49;98634.74;1681325;85;21475;-75
2021/09/08 09:04:05;;;;;;;11.83;6.40;;;;;;;17.05;62.52;98635.76;1681358;85;20993;-75
2021/09/08 09:06:35;;;;;;;12.47;6.20;;;;;;;17.11;61.79;98636.35;1681302;85;20978;-76
2021/09/08 09:09:08;;;;;;;11.65;6.53;;;;;;;17.19;61.23;98631.13;1681184;85;21033;-76
2021/09/08 09:11:37;;;;;;;11.68;5.70;;;;;;;17.30;61.39;98623.94;1682921;85;21040;-76
2021/09/08 09:14:07;;;;;;;13.72;6.47;;;;;;;17.38;60.82;98618.60;1684676;85;21053;-76
2021/09/08 09:16:35;;;;;;;9.58;6.78;;;;;;;17.52;59.06;98623.29;1684738;85;21435;-75
2021/09/08 09:19:04;;;;;;;12.68;5.85;;;;;;;17.62;60.64;98618.83;1684803;85;21463;-76
2021/09/08 09:21:30;;;;;;;9.00;5.78;;;;;;;17.70;60.30;98608.61;1676106;85;21467;-76
2021/09/08 09:24:00;;;;;;;12.03;6.67;;;;;;;17.78;60.49;98614.44;1684608;85;20993;-76
2021/09/08 09:26:32;;;;;;;12.05;6.20;;;;;;;17.85;60.41;98606.97;1685165;85;20993;-76
2021/09/08 09:29:20;;;;;;;10.40;6.10;;;;;;;17.90;60.10;98607.60;1684895;85;21021;-76
2021/09/08 09:31:49;;;;;;;;;;;;;;;18.03;58.01;98608.34;1686137;85;21041;-76
2021/09/08 09:34:16;;;;;;;10.35;6.00;;;;;;;18.16;58.03;98597.89;1683505;85;20407;-76
2021/09/08 09:36:43;;;;;;;11.57;6.42;;;;;;;18.26;57.94;98591.09;1684522;85;21093;-76
2021/09/08 09:39:09;;;;;;;11.12;6.83;;;;;;;18.37;58.35;98593.69;1684849;85;21037;-76
2021/09/08 09:41:36;;;;;;;16.70;7.20;;;;;;;18.45;58.64;98592.83;1667035;85;21065;-77
2021/09/08 09:44:14;;;;;;;10.98;7.08;;;;;;;18.52;57.86;98588.01;1684699;85;21015;-77
2021/09/08 09:46:44;;;;;;;11.43;7.33;;;;;;;18.64;58.46;98595.39;1684741;85;21030;-77
2021/09/08 09:49:13;;;;;;;13.53;8.23;;;;;;;18.72;58.56;98578.41;1684581;85;21488;-77
2021/09/08 09:51:41;;;;;;;16.60;8.48;;;;;;;18.82;58.52;98578.80;1684513;85;21084;-77
2021/09/08 09:54:08;;;;;;;12.33;8.38;;;;;;;18.92;58.56;98572.89;1684739;85;21029;-76
2021/09/08 09:56:34;;;;;;;14.13;8.43;;;;;;;19.02;57.78;98575.95;1684705;85;21112;-77
2021/09/08 09:59:02;;;;;;;14.20;8.40;;;;;;;19.11;57.74;98579.02;1684906;85;21008;-75
2021/09/08 10:01:29;;;;;;;17.02;8.93;;;;;;;19.19;58.33;98572.38;1684803;85;21013;-76
2021/09/08 10:03:56;;;;;;;14.28;8.45;;;;;;;19.30;58.26;98569.09;1684882;85;21017;-75
2021/09/08 10:06:23;;;;;;;17.32;8.55;;;;;;;19.38;57.70;98569.50;1684758;85;21518;-76
2021/09/08 10:08:56;;;;;;;13.38;8.20;;;;;;;19.55;58.24;98564.50;1667169;85;21545;-76
2021/09/08 10:11:32;;;;;;;11.55;8.13;;;;;;;19.73;58.17;98561.72;1684651;85;21065;-77
2021/09/08 10:14:09;;;;;;;13.08;7.95;;;;;;;19.90;57.86;98552.16;1684345;85;21061;-76
2021/09/08 10:16:36;;;;;;;11.65;7.20;;;;;;;20.02;56.57;98547.06;1684883;85;21512;-76
2021/09/08 10:19:06;;;;;;;10.80;7.40;;;;;;;20.15;56.28;98547.19;1684639;85;21028;-76
2021/09/08 10:21:35;;;;;;;13.70;7.67;;;;;;;20.25;56.13;98542.98;1684780;85;21051;-77
2021/09/08 10:24:04;;;;;;;12.85;6.67;;;;;;;20.43;55.93;98539.63;1684490;85;21040;-77
2021/09/08 10:26:34;;;;;;;9.55;6.60;;;;;;;20.57;54.83;98535.23;1684685;85;21492;-76
2021/09/08 10:29:06;;;;;;;12.93;7.22;;;;;;;20.67;54.24;98533.69;1684512;85;21142;-76
2021/09/08 10:31:41;;;;;;;9.08;6.87;;;;;;;20.80;53.31;98529.73;1685059;85;21452;-75
2021/09/08 10:34:11;;;;;;;12.10;6.47;;;;;;;20.92;53.13;98527.28;1684564;85;21123;-76
2021/09/08 10:36:39;;;;;;;12.90;6.78;;;;;;;21.13;52.97;98529.55;1683674;85;21490;-76
2021/09/08 10:39:13;;;;;;;11.83;6.35;;;;;;;21.62;51.51;98518.22;1666285;85;20983;-76
2021/09/08 10:41:45;;;;;;;;;;;;;;;22.96;50.05;98503.28;1687388;85;21107;-76
2021/09/08 10:44:35;;;;;;;8.98;5.75;;;;;;;25.66;46.37;98488.81;1684601;85;20112;-75
2021/09/08 10:47:01;;;;;;;10.63;6.17;;;;;;;25.66;46.37;98488.81;1651778;84;21053;-75
2021/09/08 10:49:43;;;;;;;12.25;6.33;;;;;;;26.94;43.84;98492.31;1684787;85;21316;-76
2021/09/08 10:52:13;;;;;;;9.83;6.15;;;;;;;27.78;38.16;98486.09;1684722;85;21045;-76
2021/09/08 10:55:04;;;;;;;8.25;6.05;;;;;;;28.57;38.96;98480.52;1684724;85;21542;-75
2021/09/08 10:57:52;;;;;;;10.08;5.65;;;;;;;29.35;36.88;98481.16;1684555;85;21147;-75
2021/09/08 11:00:34;;;;;;;7.60;5.17;;;;;;;30.13;32.73;98480.70;1684609;85;21051;-75
2021/09/08 11:03:02;;;;;;;9.55;6.22;;;;;;;30.79;34.46;98483.02;1684903;85;21052;-75
2021/09/08 11:05:28;;;;;;;7.85;5.50;;;;;;;31.27;33.55;98476.53;1684860;85;21507;-75
2021/09/08 11:07:55;;;;;;;7.78;5.50;;;;;;;31.70;32.44;98473.72;1684707;85;20997;-75
2021/09/08 11:10:31;;;;;;;7.55;5.20;;;;;;;32.29;31.51;98476.47;1684669;85;21097;-76
2021/09/08 11:13:02;;;;;;;7.00;5.20;;;;;;;32.74;30.13;98471.39;1660243;85;21044;-76
2021/09/08 11:15:38;;;;;;;8.03;5.65;;;;;;;33.04;28.65;98472.50;1651477;85;21025;-75
2021/09/08 11:18:13;;;;;;;7.42;5.58;;;;;;;33.49;29.29;98465.58;1649793;87;20984;-74
2021/09/08 11:20:41;;;;;;;9.05;5.40;;;;;;;34.06;28.58;98467.06;1630659;87;21028;-75
2021/09/08 11:23:15;;;;;;;6.92;5.47;;;;;;;34.41;27.22;98471.20;1651272;85;20992;-76
2021/09/08 11:25:45;;;;;;;6.33;4.85;;;;;;;34.72;25.57;98460.55;1649730;87;21088;-76
2021/09/08 11:28:14;;;;;;;5.65;5.15;;;;;;;34.92;25.76;98466.84;1657222;85;21094;-76
2021/09/08 11:30:44;;;;;;;7.33;5.20;;;;;;;35.13;22.28;98458.66;1672953;85;21090;-75
2021/09/08 11:33:13;;;;;;;9.15;8.35;;;;;;;35.23;24.01;98460.25;1650139;85;21027;-75
2021/09/08 11:35:53;;;;;;;9.28;8.28;;;;;;;35.26;22.85;98452.98;1651560;85;21032;-76